sensor_id;sensor_type;location;lat;lon;timestamp;pressure;altitude;pressure_sealevel;temperature;humidity
41830;BME280;38614;43.472;23.936;2022-08-03T00:01:10;99969.53;;;21.05;nan
41830;BME280;38614;43.472;23.936;2022-08-03T00:04:03;100003.56;;;21.27;nan
41830;BME280;38614;43.472;23.936;2022-08-03T00:06:51;100000.81;;;21.23;nan
41830;BME280;38614;43.472;23.936;2022-08-03T00:09:38;100007.03;;;21.15;nan
41830;BME280;38614;43.472;23.936;2022-08-03T00:12:28;100010.28;;;21.13;nan
41830;BME280;38614;43.472;23.936;2022-08-03T00:15:18;100015.13;;;21.13;nan
41830;BME280;38614;43.472;23.936;2022-08-03T00:18:06;100005.66;;;21.03;nan
41830;BME280;38614;43.472;23.936;2022-08-03T00:20:54;100020.53;;;21.03;nan
41830;BME280;38614;43.472;23.936;2022-08-03T00:23:42;99980.34;;;20.87;nan
41830;BME280;38614;43.472;23.936;2022-08-03T00:26:38;100007.31;;;21.00;nan
41830;BME280;38614;43.472;23.936;2022-08-03T00:29:26;100015.59;;;21.08;nan
41830;BME280;38614;43.472;23.936;2022-08-03T00:32:14;99992.81;;;20.86;nan
41830;BME280;38614;43.472;23.936;2022-08-03T00:35:02;99981.50;;;20.89;nan
41830;BME280;38614;43.472;23.936;2022-08-03T00:37:54;99980.84;;;20.82;nan
41830;BME280;38614;43.472;23.936;2022-08-03T00:40:42;100003.25;;;20.85;nan
41830;BME280;38614;43.472;23.936;2022-08-03T00:43:30;100001.16;;;20.89;nan
41830;BME280;38614;43.472;23.936;2022-08-03T00:46:18;100003.53;;;20.91;nan
41830;BME280;38614;43.472;23.936;2022-08-03T00:49:08;100003.94;;;20.89;nan
41830;BME280;38614;43.472;23.936;2022-08-03T00:51:55;99995.66;;;20.82;nan
41830;BME280;38614;43.472;23.936;2022-08-03T00:54:43;100008.56;;;20.80;nan
41830;BME280;38614;43.472;23.936;2022-08-03T00:57:32;100005.41;;;20.77;nan
41830;BME280;38614;43.472;23.936;2022-08-03T01:00:24;100018.94;;;20.83;nan
41830;BME280;38614;43.472;23.936;2022-08-03T01:03:12;100011.81;;;20.78;nan
41830;BME280;38614;43.472;23.936;2022-08-03T01:09:11;100010.94;;;20.81;nan
41830;BME280;38614;43.472;23.936;2022-08-03T01:12:09;100005.53;;;20.70;nan
41830;BME280;38614;43.472;23.936;2022-08-03T01:18:30;100006.81;;;20.66;nan
41830;BME280;38614;43.472;23.936;2022-08-03T01:21:30;99999.72;;;20.61;nan
41830;BME280;38614;43.472;23.936;2022-08-03T01:24:46;99976.81;;;20.43;nan
41830;BME280;38614;43.472;23.936;2022-08-03T01:30:35;100004.88;;;20.43;nan
41830;BME280;38614;43.472;23.936;2022-08-03T01:33:56;99999.72;;;20.38;nan
41830;BME280;38614;43.472;23.936;2022-08-03T01:36:51;100005.41;;;20.34;nan
41830;BME280;38614;43.472;23.936;2022-08-03T01:39:41;100005.03;;;20.32;nan
41830;BME280;38614;43.472;23.936;2022-08-03T01:42:30;100010.28;;;20.30;nan
41830;BME280;38614;43.472;23.936;2022-08-03T01:45:20;100006.59;;;20.13;nan
41830;BME280;38614;43.472;23.936;2022-08-03T01:48:10;100022.56;;;20.16;nan
41830;BME280;38614;43.472;23.936;2022-08-03T01:50:59;100008.16;;;20.14;nan
41830;BME280;38614;43.472;23.936;2022-08-03T01:53:49;100013.78;;;20.14;nan
41830;BME280;38614;43.472;23.936;2022-08-03T01:56:39;99924.25;;;19.53;nan
41830;BME280;38614;43.472;23.936;2022-08-03T01:59:28;100012.47;;;20.19;nan
41830;BME280;38614;43.472;23.936;2022-08-03T02:02:18;100010.63;;;20.12;nan
41830;BME280;38614;43.472;23.936;2022-08-03T02:05:20;100018.66;;;20.10;nan
41830;BME280;38614;43.472;23.936;2022-08-03T02:08:09;100006.78;;;20.03;nan
41830;BME280;38614;43.472;23.936;2022-08-03T02:10:59;100006.34;;;20.04;nan
41830;BME280;38614;43.472;23.936;2022-08-03T02:13:49;100003.41;;;19.88;nan
41830;BME280;38614;43.472;23.936;2022-08-03T02:16:37;100018.19;;;19.92;nan
41830;BME280;38614;43.472;23.936;2022-08-03T02:19:26;100022.84;;;19.99;nan
41830;BME280;38614;43.472;23.936;2022-08-03T02:22:20;100007.50;;;19.83;nan
41830;BME280;38614;43.472;23.936;2022-08-03T02:25:13;99994.38;;;19.77;nan
41830;BME280;38614;43.472;23.936;2022-08-03T02:28:16;100015.84;;;19.87;nan
41830;BME280;38614;43.472;23.936;2022-08-03T02:31:06;100017.50;;;19.84;nan
41830;BME280;38614;43.472;23.936;2022-08-03T02:34:01;100017.16;;;19.79;nan
41830;BME280;38614;43.472;23.936;2022-08-03T02:36:51;100018.50;;;19.71;nan
41830;BME280;38614;43.472;23.936;2022-08-03T02:39:40;100022.47;;;19.73;nan
41830;BME280;38614;43.472;23.936;2022-08-03T02:42:31;100020.56;;;19.67;nan
41830;BME280;38614;43.472;23.936;2022-08-03T02:45:19;100013.91;;;19.57;nan
41830;BME280;38614;43.472;23.936;2022-08-03T02:48:10;99992.63;;;19.32;nan
41830;BME280;38614;43.472;23.936;2022-08-03T02:50:59;100025.13;;;19.53;nan
41830;BME280;38614;43.472;23.936;2022-08-03T02:53:49;99993.78;;;19.35;nan
41830;BME280;38614;43.472;23.936;2022-08-03T02:56:38;99996.72;;;19.24;nan
41830;BME280;38614;43.472;23.936;2022-08-03T02:59:27;100027.38;;;19.39;nan
41830;BME280;38614;43.472;23.936;2022-08-03T03:02:17;100021.41;;;19.36;nan
41830;BME280;38614;43.472;23.936;2022-08-03T03:05:07;100013.34;;;19.39;nan
41830;BME280;38614;43.472;23.936;2022-08-03T03:08:20;100029.75;;;19.40;nan
41830;BME280;38614;43.472;23.936;2022-08-03T03:11:13;100018.19;;;19.34;nan
41830;BME280;38614;43.472;23.936;2022-08-03T03:14:01;100022.06;;;19.44;nan
41830;BME280;38614;43.472;23.936;2022-08-03T03:16:50;100011.78;;;19.38;nan
41830;BME280;38614;43.472;23.936;2022-08-03T03:19:39;100027.94;;;19.53;nan
41830;BME280;38614;43.472;23.936;2022-08-03T03:22:28;100042.34;;;19.55;nan
41830;BME280;38614;43.472;23.936;2022-08-03T03:25:20;100018.31;;;19.27;nan
41830;BME280;38614;43.472;23.936;2022-08-03T03:28:09;100043.75;;;19.40;nan
41830;BME280;38614;43.472;23.936;2022-08-03T03:33:46;100039.38;;;19.08;nan
41830;BME280;38614;43.472;23.936;2022-08-03T03:36:34;100031.44;;;19.03;nan
41830;BME280;38614;43.472;23.936;2022-08-03T03:39:22;100048.38;;;19.23;nan
41830;BME280;38614;43.472;23.936;2022-08-03T03:42:10;100048.13;;;19.41;nan
41830;BME280;38614;43.472;23.936;2022-08-03T03:44:58;100040.03;;;19.20;nan
41830;BME280;38614;43.472;23.936;2022-08-03T03:47:51;100070.22;;;19.35;nan
41830;BME280;38614;43.472;23.936;2022-08-03T03:50:42;100055.75;;;19.41;nan
41830;BME280;38614;43.472;23.936;2022-08-03T03:53:30;100072.13;;;19.42;nan
41830;BME280;38614;43.472;23.936;2022-08-03T03:56:18;100082.25;;;19.36;nan
41830;BME280;38614;43.472;23.936;2022-08-03T03:59:06;100080.91;;;19.44;nan
41830;BME280;38614;43.472;23.936;2022-08-03T04:01:53;100065.44;;;19.36;nan
41830;BME280;38614;43.472;23.936;2022-08-03T04:07:58;100071.06;;;19.32;nan
41830;BME280;38614;43.472;23.936;2022-08-03T04:14:15;100055.97;;;19.23;nan
41830;BME280;38614;43.472;23.936;2022-08-03T04:17:06;100086.41;;;19.55;nan
41830;BME280;38614;43.472;23.936;2022-08-03T04:19:56;100088.75;;;19.60;nan
41830;BME280;38614;43.472;23.936;2022-08-03T04:22:48;100085.09;;;19.63;nan
41830;BME280;38614;43.472;23.936;2022-08-03T04:25:39;100093.88;;;19.65;nan
41830;BME280;38614;43.472;23.936;2022-08-03T04:28:29;100076.38;;;19.57;nan
41830;BME280;38614;43.472;23.936;2022-08-03T04:31:22;100098.81;;;19.84;nan
41830;BME280;38614;43.472;23.936;2022-08-03T04:34:11;100107.91;;;19.92;nan
41830;BME280;38614;43.472;23.936;2022-08-03T04:37:02;100101.75;;;20.01;nan
41830;BME280;38614;43.472;23.936;2022-08-03T04:39:59;100102.56;;;20.01;nan
41830;BME280;38614;43.472;23.936;2022-08-03T04:45:38;100123.19;;;20.14;nan
41830;BME280;38614;43.472;23.936;2022-08-03T04:48:27;100119.91;;;20.19;nan
41830;BME280;38614;43.472;23.936;2022-08-03T04:51:17;100105.38;;;20.25;nan
41830;BME280;38614;43.472;23.936;2022-08-03T04:54:05;100118.81;;;20.37;nan
41830;BME280;38614;43.472;23.936;2022-08-03T04:56:53;100114.72;;;20.41;nan
41830;BME280;38614;43.472;23.936;2022-08-03T04:59:44;100122.13;;;20.55;nan
41830;BME280;38614;43.472;23.936;2022-08-03T05:02:31;100121.88;;;20.69;nan
41830;BME280;38614;43.472;23.936;2022-08-03T05:05:20;100121.75;;;20.76;nan
41830;BME280;38614;43.472;23.936;2022-08-03T05:08:08;100108.22;;;20.71;nan
41830;BME280;38614;43.472;23.936;2022-08-03T05:10:57;100113.69;;;20.78;nan
41830;BME280;38614;43.472;23.936;2022-08-03T05:13:46;100118.44;;;20.82;nan
41830;BME280;38614;43.472;23.936;2022-08-03T05:16:34;100139.44;;;20.97;nan
41830;BME280;38614;43.472;23.936;2022-08-03T05:19:22;100130.56;;;20.98;nan
41830;BME280;38614;43.472;23.936;2022-08-03T05:22:10;100105.03;;;21.13;nan
41830;BME280;38614;43.472;23.936;2022-08-03T05:27:45;100125.69;;;21.22;nan
41830;BME280;38614;43.472;23.936;2022-08-03T05:30:33;100117.34;;;21.39;nan
41830;BME280;38614;43.472;23.936;2022-08-03T05:33:21;100138.38;;;21.70;nan
41830;BME280;38614;43.472;23.936;2022-08-03T05:36:08;100148.88;;;22.02;nan
41830;BME280;38614;43.472;23.936;2022-08-03T05:38:56;100127.47;;;22.08;nan
41830;BME280;38614;43.472;23.936;2022-08-03T05:41:50;100151.69;;;22.71;nan
41830;BME280;38614;43.472;23.936;2022-08-03T05:44:38;100142.50;;;22.67;nan
41830;BME280;38614;43.472;23.936;2022-08-03T05:47:26;100158.25;;;22.97;nan
41830;BME280;38614;43.472;23.936;2022-08-03T05:50:14;100165.50;;;23.27;nan
41830;BME280;38614;43.472;23.936;2022-08-03T05:53:01;100152.16;;;23.56;nan
41830;BME280;38614;43.472;23.936;2022-08-03T05:55:49;100170.38;;;23.68;nan
41830;BME280;38614;43.472;23.936;2022-08-03T05:58:45;100176.50;;;23.92;nan
41830;BME280;38614;43.472;23.936;2022-08-03T06:01:34;100165.41;;;23.72;nan
41830;BME280;38614;43.472;23.936;2022-08-03T06:04:21;100165.88;;;24.09;nan
41830;BME280;38614;43.472;23.936;2022-08-03T06:07:09;100174.16;;;24.41;nan
41830;BME280;38614;43.472;23.936;2022-08-03T06:09:57;100166.16;;;24.87;nan
41830;BME280;38614;43.472;23.936;2022-08-03T06:13:05;100178.59;;;24.90;nan
41830;BME280;38614;43.472;23.936;2022-08-03T06:15:53;100166.97;;;25.44;nan
41830;BME280;38614;43.472;23.936;2022-08-03T06:18:41;100162.16;;;25.54;nan
41830;BME280;38614;43.472;23.936;2022-08-03T06:21:29;100172.75;;;25.84;nan
41830;BME280;38614;43.472;23.936;2022-08-03T06:24:19;100161.22;;;25.57;nan
41830;BME280;38614;43.472;23.936;2022-08-03T06:27:07;100184.53;;;25.83;nan
41830;BME280;38614;43.472;23.936;2022-08-03T06:29:55;100180.16;;;26.22;nan
41830;BME280;38614;43.472;23.936;2022-08-03T06:32:43;100179.00;;;26.10;nan
41830;BME280;38614;43.472;23.936;2022-08-03T06:35:30;100182.63;;;26.42;nan
41830;BME280;38614;43.472;23.936;2022-08-03T06:38:19;100189.88;;;27.11;nan
41830;BME280;38614;43.472;23.936;2022-08-03T06:41:07;100187.13;;;26.98;nan
41830;BME280;38614;43.472;23.936;2022-08-03T06:43:55;100189.19;;;26.97;nan
41830;BME280;38614;43.472;23.936;2022-08-03T06:46:50;100199.19;;;26.53;nan
41830;BME280;38614;43.472;23.936;2022-08-03T06:49:37;100201.09;;;26.56;nan
41830;BME280;38614;43.472;23.936;2022-08-03T06:52:37;100194.88;;;26.39;nan
41830;BME280;38614;43.472;23.936;2022-08-03T06:55:25;100174.22;;;26.29;nan
41830;BME280;38614;43.472;23.936;2022-08-03T06:58:13;100190.06;;;26.18;nan
41830;BME280;38614;43.472;23.936;2022-08-03T07:01:01;100179.00;;;26.10;nan
41830;BME280;38614;43.472;23.936;2022-08-03T07:03:49;100180.97;;;25.92;nan
41830;BME280;38614;43.472;23.936;2022-08-03T07:06:38;100197.25;;;25.78;nan
41830;BME280;38614;43.472;23.936;2022-08-03T07:09:26;100204.81;;;25.81;nan
41830;BME280;38614;43.472;23.936;2022-08-03T07:12:14;100202.97;;;25.88;nan
41830;BME280;38614;43.472;23.936;2022-08-03T07:15:03;100212.72;;;26.18;nan
41830;BME280;38614;43.472;23.936;2022-08-03T07:17:51;100198.16;;;25.97;nan
41830;BME280;38614;43.472;23.936;2022-08-03T07:20:39;100201.91;;;26.25;nan
41830;BME280;38614;43.472;23.936;2022-08-03T07:23:27;100200.19;;;26.77;nan
41830;BME280;38614;43.472;23.936;2022-08-03T07:26:15;100194.41;;;27.08;nan
41830;BME280;38614;43.472;23.936;2022-08-03T07:29:02;100182.94;;;27.21;nan
41830;BME280;38614;43.472;23.936;2022-08-03T07:31:50;100199.66;;;27.10;nan
41830;BME280;38614;43.472;23.936;2022-08-03T07:34:38;100198.03;;;27.45;nan
41830;BME280;38614;43.472;23.936;2022-08-03T07:37:27;100171.72;;;27.45;nan
41830;BME280;38614;43.472;23.936;2022-08-03T07:40:15;100189.44;;;28.00;nan
41830;BME280;38614;43.472;23.936;2022-08-03T07:43:04;100204.91;;;27.99;nan
41830;BME280;38614;43.472;23.936;2022-08-03T07:45:51;100208.38;;;28.13;nan
41830;BME280;38614;43.472;23.936;2022-08-03T07:48:40;100220.34;;;28.17;nan
41830;BME280;38614;43.472;23.936;2022-08-03T07:51:27;100202.69;;;28.79;nan
41830;BME280;38614;43.472;23.936;2022-08-03T07:54:15;100202.47;;;28.67;nan
41830;BME280;38614;43.472;23.936;2022-08-03T07:57:03;100210.88;;;28.86;nan
41830;BME280;38614;43.472;23.936;2022-08-03T07:59:51;100216.75;;;29.06;nan
41830;BME280;38614;43.472;23.936;2022-08-03T08:02:57;100220.13;;;29.58;nan
41830;BME280;38614;43.472;23.936;2022-08-03T08:05:45;100210.47;;;29.79;nan
41830;BME280;38614;43.472;23.936;2022-08-03T08:08:33;100222.44;;;30.13;nan
41830;BME280;38614;43.472;23.936;2022-08-03T08:11:21;100208.91;;;30.08;nan
41830;BME280;38614;43.472;23.936;2022-08-03T08:14:09;100230.94;;;30.43;nan
41830;BME280;38614;43.472;23.936;2022-08-03T08:16:56;100233.75;;;30.22;nan
41830;BME280;38614;43.472;23.936;2022-08-03T08:19:44;100236.81;;;30.19;nan
41830;BME280;38614;43.472;23.936;2022-08-03T08:22:37;100242.13;;;30.76;nan
41830;BME280;38614;43.472;23.936;2022-08-03T08:25:25;100238.38;;;31.05;nan
41830;BME280;38614;43.472;23.936;2022-08-03T08:31:21;100231.63;;;30.67;nan
41830;BME280;38614;43.472;23.936;2022-08-03T08:34:08;100230.16;;;30.72;nan
41830;BME280;38614;43.472;23.936;2022-08-03T08:39:45;100216.13;;;31.09;nan
41830;BME280;38614;43.472;23.936;2022-08-03T08:42:39;100227.47;;;31.24;nan
41830;BME280;38614;43.472;23.936;2022-08-03T08:45:39;100218.41;;;31.71;nan
41830;BME280;38614;43.472;23.936;2022-08-03T08:48:28;100203.91;;;31.75;nan
41830;BME280;38614;43.472;23.936;2022-08-03T08:57:01;100208.63;;;31.78;nan
41830;BME280;38614;43.472;23.936;2022-08-03T08:59:49;100219.88;;;32.19;nan
41830;BME280;38614;43.472;23.936;2022-08-03T09:02:44;100210.56;;;32.55;nan
41830;BME280;38614;43.472;23.936;2022-08-03T09:05:32;100208.41;;;32.45;nan
41830;BME280;38614;43.472;23.936;2022-08-03T09:08:40;100204.56;;;32.91;nan
41830;BME280;38614;43.472;23.936;2022-08-03T09:14:35;100194.47;;;33.01;nan
41830;BME280;38614;43.472;23.936;2022-08-03T09:17:44;100178.41;;;32.72;nan
41830;BME280;38614;43.472;23.936;2022-08-03T09:24:26;100187.13;;;32.94;nan
41830;BME280;38614;43.472;23.936;2022-08-03T09:27:27;100195.44;;;33.52;nan
41830;BME280;38614;43.472;23.936;2022-08-03T09:36:08;100183.53;;;34.09;nan
41830;BME280;38614;43.472;23.936;2022-08-03T09:39:04;100175.72;;;34.10;nan
41830;BME280;38614;43.472;23.936;2022-08-03T09:45:01;100137.88;;;33.66;nan
41830;BME280;38614;43.472;23.936;2022-08-03T09:47:49;100177.78;;;34.04;nan
41830;BME280;38614;43.472;23.936;2022-08-03T09:50:53;100174.13;;;34.31;nan
41830;BME280;38614;43.472;23.936;2022-08-03T09:53:44;100169.81;;;34.88;nan
41830;BME280;38614;43.472;23.936;2022-08-03T09:56:46;100159.13;;;35.00;nan
41830;BME280;38614;43.472;23.936;2022-08-03T09:59:34;100160.84;;;35.14;nan
41830;BME280;38614;43.472;23.936;2022-08-03T10:02:27;100154.97;;;35.36;nan
41830;BME280;38614;43.472;23.936;2022-08-03T10:05:15;100156.53;;;35.43;nan
41830;BME280;38614;43.472;23.936;2022-08-03T10:08:14;100158.59;;;35.48;nan
41830;BME280;38614;43.472;23.936;2022-08-03T10:11:02;100155.34;;;35.22;nan
41830;BME280;38614;43.472;23.936;2022-08-03T10:13:50;100149.53;;;35.38;nan
41830;BME280;38614;43.472;23.936;2022-08-03T10:16:39;100151.41;;;36.02;nan
41830;BME280;38614;43.472;23.936;2022-08-03T10:19:27;100128.66;;;35.27;nan
41830;BME280;38614;43.472;23.936;2022-08-03T10:22:25;100120.09;;;35.21;nan
41830;BME280;38614;43.472;23.936;2022-08-03T10:25:14;100133.59;;;35.73;nan
41830;BME280;38614;43.472;23.936;2022-08-03T10:28:03;100113.97;;;35.41;nan
41830;BME280;38614;43.472;23.936;2022-08-03T10:31:00;100134.19;;;35.66;nan
41830;BME280;38614;43.472;23.936;2022-08-03T10:33:58;100120.34;;;35.23;nan
41830;BME280;38614;43.472;23.936;2022-08-03T10:36:52;100140.91;;;35.38;nan
41830;BME280;38614;43.472;23.936;2022-08-03T10:39:45;100133.94;;;35.17;nan
41830;BME280;38614;43.472;23.936;2022-08-03T10:42:43;100131.75;;;35.40;nan
41830;BME280;38614;43.472;23.936;2022-08-03T10:45:33;100126.59;;;35.63;nan
41830;BME280;38614;43.472;23.936;2022-08-03T10:48:27;100118.28;;;35.59;nan
41830;BME280;38614;43.472;23.936;2022-08-03T10:51:35;100122.19;;;35.62;nan
41830;BME280;38614;43.472;23.936;2022-08-03T10:54:37;100119.03;;;35.65;nan
41830;BME280;38614;43.472;23.936;2022-08-03T10:57:52;100104.84;;;35.73;nan
41830;BME280;38614;43.472;23.936;2022-08-03T11:00:49;100114.22;;;36.09;nan
41830;BME280;38614;43.472;23.936;2022-08-03T11:07:42;100088.78;;;35.59;nan
41830;BME280;38614;43.472;23.936;2022-08-03T11:10:30;100110.34;;;35.71;nan
41830;BME280;38614;43.472;23.936;2022-08-03T11:13:20;100095.69;;;34.98;nan
41830;BME280;38614;43.472;23.936;2022-08-03T11:16:19;100091.75;;;35.01;nan
41830;BME280;38614;43.472;23.936;2022-08-03T11:19:10;100090.75;;;35.39;nan
41830;BME280;38614;43.472;23.936;2022-08-03T11:21:58;100077.22;;;35.29;nan
41830;BME280;38614;43.472;23.936;2022-08-03T11:25:02;100052.41;;;35.31;nan
41830;BME280;38614;43.472;23.936;2022-08-03T11:28:32;100066.94;;;35.45;nan
41830;BME280;38614;43.472;23.936;2022-08-03T11:34:34;100062.16;;;35.83;nan
41830;BME280;38614;43.472;23.936;2022-08-03T11:41:01;100057.72;;;36.36;nan
41830;BME280;38614;43.472;23.936;2022-08-03T11:43:52;100042.72;;;36.19;nan
41830;BME280;38614;43.472;23.936;2022-08-03T11:46:57;100050.44;;;36.54;nan
41830;BME280;38614;43.472;23.936;2022-08-03T11:50:09;100046.50;;;37.14;nan
41830;BME280;38614;43.472;23.936;2022-08-03T11:52:57;100037.97;;;36.89;nan
41830;BME280;38614;43.472;23.936;2022-08-03T11:55:47;100022.91;;;35.61;nan
41830;BME280;38614;43.472;23.936;2022-08-03T11:58:35;100022.25;;;35.49;nan
41830;BME280;38614;43.472;23.936;2022-08-03T12:01:43;100034.91;;;35.29;nan
41830;BME280;38614;43.472;23.936;2022-08-03T12:04:51;100011.22;;;35.18;nan
41830;BME280;38614;43.472;23.936;2022-08-03T12:07:45;100036.31;;;34.70;nan
41830;BME280;38614;43.472;23.936;2022-08-03T12:10:55;100023.81;;;34.62;nan
41830;BME280;38614;43.472;23.936;2022-08-03T12:13:48;100015.66;;;34.77;nan
41830;BME280;38614;43.472;23.936;2022-08-03T12:16:50;100033.47;;;35.11;nan
41830;BME280;38614;43.472;23.936;2022-08-03T12:19:49;100017.03;;;35.12;nan
41830;BME280;38614;43.472;23.936;2022-08-03T12:22:38;100028.44;;;35.59;nan
41830;BME280;38614;43.472;23.936;2022-08-03T12:25:40;100031.41;;;35.72;nan
41830;BME280;38614;43.472;23.936;2022-08-03T12:28:46;100028.22;;;35.51;nan
41830;BME280;38614;43.472;23.936;2022-08-03T12:31:40;100029.97;;;35.60;nan
41830;BME280;38614;43.472;23.936;2022-08-03T12:38:21;100013.28;;;35.83;nan
41830;BME280;38614;43.472;23.936;2022-08-03T12:41:12;100005.53;;;36.02;nan
41830;BME280;38614;43.472;23.936;2022-08-03T12:44:08;100024.53;;;36.35;nan
41830;BME280;38614;43.472;23.936;2022-08-03T12:47:02;100018.75;;;36.11;nan
41830;BME280;38614;43.472;23.936;2022-08-03T12:50:49;100013.22;;;35.64;nan
41830;BME280;38614;43.472;23.936;2022-08-03T12:53:39;100000.22;;;35.87;nan
41830;BME280;38614;43.472;23.936;2022-08-03T12:56:27;100008.56;;;36.10;nan
41830;BME280;38614;43.472;23.936;2022-08-03T14:18:03;99948.69;;;35.65;nan
41830;BME280;38614;43.472;23.936;2022-08-03T14:27:24;99969.31;;;35.33;nan
41830;BME280;38614;43.472;23.936;2022-08-03T14:30:12;99956.66;;;35.18;nan
41830;BME280;38614;43.472;23.936;2022-08-03T14:33:02;99941.88;;;35.08;nan
41830;BME280;38614;43.472;23.936;2022-08-03T14:38:38;99937.84;;;35.52;nan
41830;BME280;38614;43.472;23.936;2022-08-03T14:41:26;99955.91;;;35.72;nan
41830;BME280;38614;43.472;23.936;2022-08-03T14:44:14;99960.97;;;35.65;nan
41830;BME280;38614;43.472;23.936;2022-08-03T14:47:02;99964.63;;;35.66;nan
41830;BME280;38614;43.472;23.936;2022-08-03T14:49:54;99944.16;;;35.45;nan
41830;BME280;38614;43.472;23.936;2022-08-03T14:58:39;99929.22;;;35.52;nan
41830;BME280;38614;43.472;23.936;2022-08-03T15:12:58;99960.13;;;35.46;nan
41830;BME280;38614;43.472;23.936;2022-08-03T15:18:34;99932.56;;;35.26;nan
41830;BME280;38614;43.472;23.936;2022-08-03T15:24:29;99933.22;;;35.13;nan
41830;BME280;38614;43.472;23.936;2022-08-03T17:03:29;99930.84;;;31.57;nan
41830;BME280;38614;43.472;23.936;2022-08-03T17:06:28;99953.69;;;31.57;nan
41830;BME280;38614;43.472;23.936;2022-08-03T17:12:09;99934.50;;;30.95;nan
41830;BME280;38614;43.472;23.936;2022-08-03T17:14:57;99938.81;;;30.84;nan
41830;BME280;38614;43.472;23.936;2022-08-03T17:26:25;99970.53;;;30.46;nan
41830;BME280;38614;43.472;23.936;2022-08-03T17:29:18;99953.94;;;30.24;nan
41830;BME280;38614;43.472;23.936;2022-08-03T17:32:15;99950.78;;;30.01;nan
41830;BME280;38614;43.472;23.936;2022-08-03T17:35:07;99968.25;;;29.89;nan
41830;BME280;38614;43.472;23.936;2022-08-03T17:37:55;99961.25;;;29.69;nan
41830;BME280;38614;43.472;23.936;2022-08-03T17:40:45;99954.28;;;29.41;nan
41830;BME280;38614;43.472;23.936;2022-08-03T17:43:36;99968.16;;;29.33;nan
41830;BME280;38614;43.472;23.936;2022-08-03T18:07:48;99941.19;;;27.92;nan
41830;BME280;38614;43.472;23.936;2022-08-03T18:10:48;99979.28;;;28.00;nan
41830;BME280;38614;43.472;23.936;2022-08-03T18:16:42;99969.38;;;27.63;nan
41830;BME280;38614;43.472;23.936;2022-08-03T18:19:34;100000.00;;;27.59;nan
41830;BME280;38614;43.472;23.936;2022-08-03T18:22:42;100004.16;;;27.48;nan
41830;BME280;38614;43.472;23.936;2022-08-03T18:25:31;100002.56;;;27.47;nan
41830;BME280;38614;43.472;23.936;2022-08-03T18:28:33;100006.03;;;27.42;nan
41830;BME280;38614;43.472;23.936;2022-08-03T18:31:22;100011.28;;;27.35;nan
41830;BME280;38614;43.472;23.936;2022-08-03T18:34:31;100012.75;;;27.21;nan
41830;BME280;38614;43.472;23.936;2022-08-03T18:37:24;100017.19;;;27.13;nan
41830;BME280;38614;43.472;23.936;2022-08-03T18:40:12;100022.38;;;27.05;nan
41830;BME280;38614;43.472;23.936;2022-08-03T18:43:01;100014.34;;;26.85;nan
41830;BME280;38614;43.472;23.936;2022-08-03T18:45:57;100009.97;;;26.75;nan
41830;BME280;38614;43.472;23.936;2022-08-03T18:48:57;99999.72;;;26.59;nan
41830;BME280;38614;43.472;23.936;2022-08-03T18:51:52;99982.91;;;26.37;nan
41830;BME280;38614;43.472;23.936;2022-08-03T18:55:06;100033.09;;;26.55;nan
41830;BME280;38614;43.472;23.936;2022-08-03T19:04:54;100034.00;;;26.25;nan
41830;BME280;38614;43.472;23.936;2022-08-03T19:07:57;100005.63;;;25.97;nan
41830;BME280;38614;43.472;23.936;2022-08-03T19:10:50;100030.94;;;26.01;nan
41830;BME280;38614;43.472;23.936;2022-08-03T19:13:49;100040.84;;;25.96;nan
41830;BME280;38614;43.472;23.936;2022-08-03T19:16:39;100020.00;;;25.72;nan
41830;BME280;38614;43.472;23.936;2022-08-03T19:19:29;100037.81;;;25.81;nan
41830;BME280;38614;43.472;23.936;2022-08-03T19:22:31;99968.41;;;25.27;nan
41830;BME280;38614;43.472;23.936;2022-08-03T19:25:20;100035.06;;;25.69;nan
41830;BME280;38614;43.472;23.936;2022-08-03T19:28:19;100050.13;;;25.66;nan
41830;BME280;38614;43.472;23.936;2022-08-03T19:31:15;100049.97;;;25.60;nan
41830;BME280;38614;43.472;23.936;2022-08-03T19:34:26;100048.69;;;25.52;nan
41830;BME280;38614;43.472;23.936;2022-08-03T19:38:17;100055.25;;;25.49;nan
41830;BME280;38614;43.472;23.936;2022-08-03T19:41:16;100027.16;;;25.23;nan
41830;BME280;38614;43.472;23.936;2022-08-03T19:44:09;100065.72;;;25.39;nan
41830;BME280;38614;43.472;23.936;2022-08-03T19:47:07;100030.03;;;25.11;nan
41830;BME280;38614;43.472;23.936;2022-08-03T19:49:56;100063.56;;;25.21;nan
41830;BME280;38614;43.472;23.936;2022-08-03T19:52:57;100029.56;;;24.90;nan
41830;BME280;38614;43.472;23.936;2022-08-03T19:55:48;100061.19;;;24.98;nan
41830;BME280;38614;43.472;23.936;2022-08-03T19:58:41;100033.91;;;24.60;nan
41830;BME280;38614;43.472;23.936;2022-08-03T20:01:30;100040.66;;;24.63;nan
41830;BME280;38614;43.472;23.936;2022-08-03T20:04:18;100050.59;;;24.67;nan
41830;BME280;38614;43.472;23.936;2022-08-03T20:07:14;100059.44;;;24.57;nan
41830;BME280;38614;43.472;23.936;2022-08-03T20:10:08;99977.59;;;23.97;nan
41830;BME280;38614;43.472;23.936;2022-08-03T20:12:57;99977.16;;;23.73;nan
41830;BME280;38614;43.472;23.936;2022-08-03T20:15:48;100055.44;;;24.32;nan
41830;BME280;38614;43.472;23.936;2022-08-03T20:18:39;100053.75;;;24.22;nan
41830;BME280;38614;43.472;23.936;2022-08-03T20:21:30;99985.06;;;23.78;nan
41830;BME280;38614;43.472;23.936;2022-08-03T20:24:26;100049.81;;;24.07;nan
41830;BME280;38614;43.472;23.936;2022-08-03T20:27:16;100047.03;;;23.94;nan
41830;BME280;38614;43.472;23.936;2022-08-03T20:30:06;100039.44;;;23.91;nan
41830;BME280;38614;43.472;23.936;2022-08-03T20:32:54;100062.25;;;23.97;nan